Terminal Aerodrome Forecast
Issued by NWS

Home | Current Version | Previous Version | Text Only | Print | Product List | Glossary On
Versions: 1 2 3 4 5 6 7 8 9 10 11 12 13 14 15 16 17 18
000
FTUS43 KMQT 210500
TAFCMX
TAF
KCMX 210537Z 2106/2206 02010KT P6SM OVC015
     FM210900 03009KT P6SM OVC025
     FM211500 09010KT P6SM SCT025=

USA.gov is the U.S. government's official web portal to all federal, state and local government web resources and services.